createdAt,value
2022-12-03T00:01:31.479Z,21.60
2022-12-03T00:11:34.733Z,21.30
2022-12-03T00:21:39.025Z,21.35
2022-12-03T00:31:43.286Z,22.43
2022-12-03T00:41:47.743Z,22.13
2022-12-03T00:51:50.683Z,21.47
2022-12-03T01:01:55.064Z,23.33
2022-12-03T01:11:58.081Z,23.43
2022-12-03T01:22:03.024Z,22.92
2022-12-03T01:42:24.789Z,24.13
2022-12-03T01:52:31.579Z,25.67
2022-12-03T02:02:36.523Z,28.50
2022-12-03T02:12:47.369Z,27.40
2022-12-03T02:23:01.077Z,25.42
2022-12-03T02:33:05.710Z,25.60
2022-12-03T02:43:09.766Z,25.58
2022-12-03T02:53:18.787Z,27.40
2022-12-03T03:03:23.424Z,27.52
2022-12-03T03:13:27.896Z,27.90
2022-12-03T03:23:30.919Z,28.60
2022-12-03T03:33:37.775Z,28.42
2022-12-03T03:43:43.243Z,28.17
2022-12-03T03:53:49.700Z,29.13
2022-12-03T04:03:53.772Z,29.48
2022-12-03T04:13:58.194Z,27.57
2022-12-03T04:24:01.953Z,28.57
2022-12-03T04:34:23.616Z,29.77
2022-12-03T04:44:36.283Z,30.75
2022-12-03T04:54:41.014Z,30.48
2022-12-03T05:04:43.958Z,28.55
2022-12-03T05:14:48.232Z,29.33
2022-12-03T05:24:51.550Z,27.83
2022-12-03T05:34:56.444Z,29.33
2022-12-03T05:44:59.623Z,29.42
2022-12-03T05:55:04.203Z,31.17
2022-12-03T06:05:08.730Z,31.13
2022-12-03T06:15:28.074Z,31.73
2022-12-03T06:25:31.103Z,33.03
2022-12-03T06:35:35.509Z,33.10
2022-12-03T06:45:42.049Z,29.70
2022-12-03T06:55:48.930Z,30.42
2022-12-03T07:05:51.822Z,32.90
2022-12-03T07:15:56.262Z,30.92
2022-12-03T07:25:59.237Z,29.03
2022-12-03T07:36:03.512Z,30.20
2022-12-03T07:46:06.818Z,23.20
2022-12-03T07:56:11.204Z,29.00
2022-12-03T08:06:14.154Z,28.50
2022-12-03T08:16:20.593Z,27.38
2022-12-03T08:26:26.009Z,27.08
2022-12-03T08:36:33.980Z,27.98
2022-12-03T08:46:36.889Z,27.17
2022-12-03T08:56:43.445Z,29.33
2022-12-03T09:06:46.417Z,29.15
2022-12-03T09:16:52.067Z,26.15
2022-12-03T09:26:55.416Z,28.45
2022-12-03T09:36:59.959Z,28.45
2022-12-03T09:47:04.106Z,30.00
2022-12-03T09:57:12.360Z,29.03
2022-12-03T10:07:15.587Z,28.30
2022-12-03T10:17:20.077Z,23.88
2022-12-03T10:27:30.334Z,20.83
2022-12-03T10:37:34.620Z,23.38
2022-12-03T10:47:37.638Z,21.50
2022-12-03T10:57:45.522Z,23.30
2022-12-03T11:07:49.458Z,21.50
2022-12-03T11:17:54.664Z,21.80
2022-12-03T11:28:36.227Z,22.63
2022-12-03T11:39:04.572Z,24.27
2022-12-03T11:49:26.144Z,22.95
2022-12-03T11:59:30.972Z,23.58
2022-12-03T12:09:51.971Z,24.15
2022-12-03T12:20:13.851Z,24.17
2022-12-03T12:30:19.391Z,24.75
2022-12-03T12:40:26.873Z,26.27
2022-12-03T12:50:32.489Z,24.27
2022-12-03T13:00:36.888Z,24.20
2022-12-03T13:10:42.027Z,28.37
2022-12-03T13:20:46.470Z,27.30
2022-12-03T13:30:49.966Z,27.20
2022-12-03T13:41:02.429Z,29.65
2022-12-03T13:51:20.924Z,27.92
2022-12-03T14:01:25.417Z,27.77
2022-12-03T14:11:45.908Z,31.17
2022-12-03T14:21:52.426Z,30.52
2022-12-03T14:31:56.741Z,29.33
2022-12-03T14:42:16.883Z,29.90
2022-12-03T14:52:20.311Z,32.42
2022-12-03T15:02:24.677Z,33.75
2022-12-03T15:12:27.729Z,30.53
2022-12-03T15:22:32.121Z,31.50
2022-12-03T15:32:35.054Z,31.80
2022-12-03T15:42:39.405Z,30.48
2022-12-03T15:52:42.380Z,33.10
2022-12-03T16:02:52.665Z,31.40
2022-12-03T16:12:56.006Z,32.10
2022-12-03T16:23:00.398Z,32.08
2022-12-03T16:33:03.289Z,30.83
2022-12-03T16:43:09.611Z,31.05
2022-12-03T16:53:12.535Z,31.17
2022-12-03T17:03:17.895Z,32.42
2022-12-03T17:13:21.038Z,33.00
2022-12-03T17:23:25.377Z,33.80
2022-12-03T17:33:28.340Z,34.80
2022-12-03T17:43:32.711Z,37.30
2022-12-03T17:53:35.682Z,38.57
2022-12-03T18:03:40.077Z,35.53
2022-12-03T18:13:43.049Z,36.77
2022-12-03T18:23:47.505Z,36.72
2022-12-03T18:33:50.749Z,36.83
2022-12-03T18:43:55.181Z,34.72
2022-12-03T18:53:58.152Z,33.37
2022-12-03T19:04:02.714Z,34.92
2022-12-03T19:14:05.676Z,34.05
2022-12-03T19:24:24.454Z,36.67
2022-12-03T19:34:28.264Z,38.15
2022-12-03T19:44:32.550Z,36.38
2022-12-03T19:54:35.725Z,39.72
2022-12-03T20:04:40.204Z,39.65
2022-12-03T20:14:45.176Z,38.73
2022-12-03T20:34:52.384Z,39.88
2022-12-03T20:44:56.705Z,39.80
2022-12-03T20:54:59.730Z,41.67
2022-12-03T21:05:04.127Z,40.38
2022-12-03T21:15:07.789Z,40.30
2022-12-03T21:25:12.173Z,40.63
2022-12-03T21:35:15.313Z,38.27
2022-12-03T21:45:19.952Z,41.35
2022-12-03T21:55:22.929Z,46.17
2022-12-03T22:05:27.208Z,39.58
2022-12-03T22:15:30.137Z,41.63
2022-12-03T22:25:34.463Z,39.88
2022-12-03T22:35:37.425Z,40.47
2022-12-03T22:45:41.702Z,40.50
2022-12-03T22:55:45.322Z,39.77
2022-12-03T23:05:49.634Z,42.05
2022-12-03T23:15:53.616Z,42.27
2022-12-03T23:26:02.839Z,40.73
2022-12-03T23:36:06.559Z,43.05
2022-12-03T23:46:12.863Z,41.67
2022-12-03T23:56:18.060Z,40.10
